Time;durP1;ratioP1;P1;durP2;ratioP2;P2;SDS_P1;SDS_P2;PMS_P1;PMS_P2;Temp;Humidity;BMP_temperature;BMP_pressure;BME280_temperature;BME280_humidity;BME280_pressure;Samples;Min_cycle;Max_cycle;Signal;HPM_P1;HPM_P2
2022/09/06 00:04:29;;;;;;;;;;;;;;;23.33;50.46;95903.94;10244038;28;1931;-49
2022/09/06 00:09:29;;;;;;;;;;;;;;;23.32;50.36;95897.09;10243828;28;1969;-49
2022/09/06 00:14:29;;;;;;;;;;;;;;;23.33;50.50;95898.66;10245683;28;1789;-47
2022/09/06 00:19:29;;;;;;;;;;;;;;;23.32;50.47;95899.75;10249007;28;1562;-49
2022/09/06 00:24:30;;;;;;;;;;;;;;;23.30;50.49;95907.16;10249480;28;2245;-53
2022/09/06 00:29:30;;;;;;;;;;;;;;;23.30;50.34;95907.16;10250291;28;1918;-50
2022/09/06 00:34:32;;;;;;;;;;;;;;;23.31;50.41;95903.41;10251239;28;2018;-51
2022/09/06 00:39:32;;;;;;;;;;;;;;;23.32;50.51;95905.84;10246328;28;1908;-46
2022/09/06 00:44:32;;;;;;;;;;;;;;;23.32;50.54;95897.91;10251310;28;1922;-48
2022/09/06 00:49:37;;;;;;;;;;;;;;;23.32;50.25;95899.75;10250928;28;1963;-49
2022/09/06 00:54:37;;;;;;;;;;;;;;;23.31;50.27;95908.72;10246121;28;2067;-47
2022/09/06 00:59:38;;;;;;;;;;;;;;;23.31;50.27;95903.41;10249508;28;2130;-45
2022/09/06 01:04:39;;;;;;;;;;;;;;;23.31;50.63;95916.66;10250854;28;2237;-51
2022/09/06 01:09:45;;;;;;;;;;;;;;;23.31;50.44;95919.28;10262409;28;1903;-49
2022/09/06 01:14:46;;;;;;;;;;;;;;;23.31;50.24;95914.78;10247638;28;2364;-50
2022/09/06 01:20:08;;;;;;;;;;;;;;;23.30;50.09;95915.09;10249869;28;2169;-50
2022/09/06 01:25:12;;;;;;;;;;;;;;;23.28;50.54;95917.22;10247342;28;1662;-51
2022/09/06 01:30:13;;;;;;;;;;;;;;;23.27;50.22;95913.78;10255845;28;1910;-49
2022/09/06 01:35:17;;;;;;;;;;;;;;;23.31;50.19;95919.28;10244776;28;2100;-48
2022/09/06 01:40:18;;;;;;;;;;;;;;;23.29;50.26;95908.22;10245515;28;1824;-49
2022/09/06 01:45:38;;;;;;;;;;;;;;;23.27;50.33;95913.78;10244356;28;1928;-49
2022/09/06 01:50:57;;;;;;;;;;;;;;;23.24;50.05;95916.25;10238141;28;1974;-51
2022/09/06 01:56:04;;;;;;;;;;;;;;;23.27;50.35;95923.59;10249525;28;2040;-48
2022/09/06 02:01:20;;;;;;;;;;;;;;;23.29;50.04;95921.44;10247479;28;1982;-50
2022/09/06 02:06:26;;;;;;;;;;;;;;;23.28;50.21;95910.09;10248578;28;1965;-46
2022/09/06 02:11:26;;;;;;;;;;;;;;;23.29;50.01;95921.44;10243665;28;2154;-46
2022/09/06 02:16:26;;;;;;;;;;;;;;;23.29;49.86;95916.94;10245880;28;1795;-47
2022/09/06 02:21:28;;;;;;;;;;;;;;;23.29;50.00;95913.50;10262895;28;1825;-52
2022/09/06 02:26:29;;;;;;;;;;;;;;;23.29;49.88;95905.56;10259493;28;1898;-48
2022/09/06 02:31:39;;;;;;;;;;;;;;;23.30;50.05;95904.50;10240004;28;1903;-48
2022/09/06 02:36:39;;;;;;;;;;;;;;;23.28;49.93;95909.31;10244476;28;1938;-49
2022/09/06 02:41:40;;;;;;;;;;;;;;;23.27;49.87;95903.22;10243876;28;1862;-50
2022/09/06 02:46:40;;;;;;;;;;;;;;;23.28;49.94;95901.38;10245256;28;1903;-49
2022/09/06 02:51:40;;;;;;;;;;;;;;;23.25;49.80;95913.28;10248837;28;1934;-50
2022/09/06 02:56:41;;;;;;;;;;;;;;;23.26;49.88;95919.38;10241680;28;1914;-46
2022/09/06 03:01:41;;;;;;;;;;;;;;;23.27;50.08;95907.72;10263239;28;1860;-50
2022/09/06 03:06:41;;;;;;;;;;;;;;;23.23;49.87;95910.16;10246851;28;1966;-47
2022/09/06 03:11:42;;;;;;;;;;;;;;;23.23;49.88;95909.34;10246833;28;1852;-50
2022/09/06 03:16:42;;;;;;;;;;;;;;;23.25;49.77;95902.72;10243777;28;1878;-47
2022/09/06 03:21:42;;;;;;;;;;;;;;;23.26;49.60;95908.81;10245374;28;1792;-49
2022/09/06 03:26:43;;;;;;;;;;;;;;;23.27;49.64;95905.06;10245887;28;1994;-46
2022/09/06 03:31:43;;;;;;;;;;;;;;;23.27;49.71;95897.13;10245085;28;1852;-47
2022/09/06 03:36:44;;;;;;;;;;;;;;;23.26;49.62;95895.56;10248363;28;2005;-47
2022/09/06 03:41:44;;;;;;;;;;;;;;;23.25;49.86;95894.78;10247037;28;1955;-45
2022/09/06 03:46:45;;;;;;;;;;;;;;;23.26;49.81;95890.28;10237695;28;1915;-52
2022/09/06 03:51:45;;;;;;;;;;;;;;;23.26;49.52;95896.38;10245647;28;1893;-48
2022/09/06 03:56:46;;;;;;;;;;;;;;;23.26;49.60;95898.22;10252368;28;1769;-49
2022/09/06 04:01:46;;;;;;;;;;;;;;;23.25;49.63;95889.50;10250933;28;1906;-46
2022/09/06 04:06:47;;;;;;;;;;;;;;;23.25;49.59;95878.13;10246268;28;1973;-48
2022/09/06 04:11:47;;;;;;;;;;;;;;;23.24;49.38;95895.88;10247267;28;2121;-50
2022/09/06 04:16:48;;;;;;;;;;;;;;;23.19;49.59;95900.44;10248987;28;1866;-48
2022/09/06 04:21:48;;;;;;;;;;;;;;;23.21;49.46;95914.16;10251575;28;1885;-48
2022/09/06 04:26:48;;;;;;;;;;;;;;;23.22;49.26;95898.00;10235816;28;2678;-48
2022/09/06 04:31:49;;;;;;;;;;;;;;;23.23;49.48;95896.94;10251000;28;1941;-44
2022/09/06 04:36:57;;;;;;;;;;;;;;;23.22;49.37;95894.56;10250196;28;1978;-47
2022/09/06 04:41:57;;;;;;;;;;;;;;;23.23;49.68;95890.84;10249577;28;1974;-50
2022/09/06 04:47:13;;;;;;;;;;;;;;;23.22;49.27;95897.22;10250854;28;1910;-50
2022/09/06 04:52:14;;;;;;;;;;;;;;;23.22;49.20;95905.16;10251102;28;1951;-50
2022/09/06 04:57:14;;;;;;;;;;;;;;;23.23;49.57;95912.00;10253686;28;2180;-51
2022/09/06 05:02:14;;;;;;;;;;;;;;;23.22;49.62;95916.53;10229496;28;1890;-47
2022/09/06 05:07:15;;;;;;;;;;;;;;;23.22;49.62;95911.25;10244682;28;1910;-51
2022/09/06 05:12:15;;;;;;;;;;;;;;;23.21;49.20;95908.88;10248566;28;1923;-46
2022/09/06 05:17:15;;;;;;;;;;;;;;;23.21;49.47;95924.72;10262199;28;1860;-52
2022/09/06 05:22:16;;;;;;;;;;;;;;;23.21;49.38;95933.47;10246101;28;1965;-47
2022/09/06 05:27:17;;;;;;;;;;;;;;;23.22;49.22;95942.19;10230718;28;1981;-48
2022/09/06 05:32:17;;;;;;;;;;;;;;;23.18;49.07;95943.81;10247095;28;1855;-48
2022/09/06 05:37:18;;;;;;;;;;;;;;;23.16;49.44;95948.63;10251527;28;1992;-49
2022/09/06 05:42:18;;;;;;;;;;;;;;;23.17;49.37;95960.75;10252158;28;1912;-50
2022/09/06 05:47:18;;;;;;;;;;;;;;;23.17;49.16;95972.13;10249652;28;1923;-46
2022/09/06 05:52:19;;;;;;;;;;;;;;;23.17;49.19;95981.91;10246889;28;2131;-47
2022/09/06 05:57:19;;;;;;;;;;;;;;;23.16;49.19;95977.69;10246080;28;1875;-46
2022/09/06 06:02:20;;;;;;;;;;;;;;;23.16;49.51;95989.03;10245624;28;1888;-52
2022/09/06 06:07:20;;;;;;;;;;;;;;;23.17;49.21;96013.63;10243438;28;2086;-47
2022/09/06 06:12:21;;;;;;;;;;;;;;;23.15;49.29;96016.56;10247805;28;1923;-48
2022/09/06 06:17:22;;;;;;;;;;;;;;;23.15;49.48;96018.44;10242714;28;1899;-46
2022/09/06 06:22:22;;;;;;;;;;;;;;;23.18;49.54;96017.88;10249970;28;1927;-46
2022/09/06 06:27:22;;;;;;;;;;;;;;;23.19;49.78;96016.78;10246798;28;1977;-49
2022/09/06 06:32:23;;;;;;;;;;;;;;;23.21;49.86;96025.22;10245415;28;1988;-44
2022/09/06 06:37:23;;;;;;;;;;;;;;;23.19;49.71;96022.88;10247775;28;1978;-49
2022/09/06 06:42:23;;;;;;;;;;;;;;;23.19;49.63;96022.88;10249109;28;1923;-46
2022/09/06 06:47:24;;;;;;;;;;;;;;;23.19;49.84;96028.16;10239226;28;1924;-48
2022/09/06 06:52:24;;;;;;;;;;;;;;;23.21;49.83;96038.44;10244031;28;2200;-45
2022/09/06 06:57:25;;;;;;;;;;;;;;;23.20;49.94;96035.03;10244383;28;1732;-48
2022/09/06 07:02:25;;;;;;;;;;;;;;;23.20;50.25;96040.34;10245151;28;1825;-50
2022/09/06 07:07:26;;;;;;;;;;;;;;;23.22;50.04;96040.03;10244454;28;2160;-46
2022/09/06 07:12:26;;;;;;;;;;;;;;;23.23;49.96;96041.59;10234946;28;1867;-50
2022/09/06 07:17:26;;;;;;;;;;;;;;;23.24;50.09;96041.34;10242514;28;1879;-47
2022/09/06 07:22:26;;;;;;;;;;;;;;;23.23;49.88;96050.31;10241526;28;1922;-48
2022/09/06 07:27:27;;;;;;;;;;;;;;;23.22;49.82;96054.06;10241374;28;1954;-46
2022/09/06 07:32:29;;;;;;;;;;;;;;;23.22;49.68;96047.97;10249274;28;1883;-49
2022/09/06 07:37:30;;;;;;;;;;;;;;;23.21;49.68;96051.66;10256548;28;1958;-48
2022/09/06 07:42:30;;;;;;;;;;;;;;;23.20;49.77;96042.19;10255060;28;1962;-47
2022/09/06 07:47:31;;;;;;;;;;;;;;;23.20;49.70;96027.09;10246931;28;1973;-47
2022/09/06 07:52:31;;;;;;;;;;;;;;;23.21;49.41;96033.16;10245773;28;1981;-45
2022/09/06 07:57:31;;;;;;;;;;;;;;;23.21;49.21;96036.59;10252441;28;1938;-52
2022/09/06 08:02:31;;;;;;;;;;;;;;;23.21;48.91;96033.94;10250327;28;1938;-45
2022/09/06 08:07:32;;;;;;;;;;;;;;;23.21;48.95;96026.03;10245078;28;1963;-47
2022/09/06 08:12:32;;;;;;;;;;;;;;;23.20;49.41;96008.59;10253037;28;1801;-48
2022/09/06 08:17:34;;;;;;;;;;;;;;;23.23;49.22;96007.22;10244744;28;1958;-50
2022/09/06 08:22:35;;;;;;;;;;;;;;;23.24;49.00;95998.22;10246449;28;1891;-45
2022/09/06 08:27:35;;;;;;;;;;;;;;;23.24;49.18;95987.66;10250088;28;1981;-47
2022/09/06 08:32:37;;;;;;;;;;;;;;;23.23;49.33;96000.06;10267474;28;1891;-49
2022/09/06 08:37:38;;;;;;;;;;;;;;;23.22;49.65;95995.06;10245363;28;1855;-47
2022/09/06 08:42:39;;;;;;;;;;;;;;;23.23;49.33;95997.44;10247478;28;1915;-48
2022/09/06 08:47:39;;;;;;;;;;;;;;;23.21;49.57;95986.34;10260780;28;1910;-47
2022/09/06 08:52:39;;;;;;;;;;;;;;;23.23;49.57;95980.75;10248461;28;1938;-50
2022/09/06 08:57:48;;;;;;;;;;;;;;;23.22;49.49;95981.84;10247933;28;1961;-48
2022/09/06 09:02:51;;;;;;;;;;;;;;;23.22;49.44;95987.94;10248286;28;1813;-49
2022/09/06 09:07:51;;;;;;;;;;;;;;;23.22;49.37;95964.13;10247144;28;2156;-49
2022/09/06 09:12:52;;;;;;;;;;;;;;;23.24;49.67;95958.56;10242734;28;1911;-47
2022/09/06 09:17:52;;;;;;;;;;;;;;;23.24;49.67;95947.97;10247858;28;1981;-46
2022/09/06 09:22:52;;;;;;;;;;;;;;;23.25;49.66;95941.59;10248392;28;2239;-49
2022/09/06 09:27:56;;;;;;;;;;;;;;;23.23;49.83;95941.09;10247379;28;1990;-48
2022/09/06 09:32:56;;;;;;;;;;;;;;;23.23;49.56;95926.03;10248341;28;1965;-48
2022/09/06 09:38:06;;;;;;;;;;;;;;;23.23;49.68;95920.72;10249046;28;1924;-47
2022/09/06 09:43:14;;;;;;;;;;;;;;;23.23;49.78;95923.38;10245105;28;2082;-50
2022/09/06 09:48:16;;;;;;;;;;;;;;;23.24;49.88;95910.94;10261863;28;1970;-50
2022/09/06 09:53:18;;;;;;;;;;;;;;;23.26;50.09;95924.66;10247159;28;1948;-46
2022/09/06 09:58:29;;;;;;;;;;;;;;;23.26;49.82;95922.03;10247574;28;1854;-49
2022/09/06 10:03:29;;;;;;;;;;;;;;;23.27;49.93;95905.88;10252744;28;1974;-47
2022/09/06 10:08:32;;;;;;;;;;;;;;;23.26;49.93;95901.66;10245878;28;2025;-47
2022/09/06 10:13:33;;;;;;;;;;;;;;;23.29;50.06;95905.56;10245691;28;1700;-51
2022/09/06 10:18:33;;;;;;;;;;;;;;;23.29;49.89;95895.00;10254099;28;2347;-49
2022/09/06 10:23:52;;;;;;;;;;;;;;;23.30;50.20;95886.78;10246824;28;1895;-50
2022/09/06 10:28:55;;;;;;;;;;;;;;;23.31;50.22;95890.19;10250530;28;1918;-46
2022/09/06 10:33:56;;;;;;;;;;;;;;;23.33;50.64;95898.66;10269629;28;1912;-51
2022/09/06 10:38:57;;;;;;;;;;;;;;;23.35;50.62;95897.31;10248085;28;1863;-49
2022/09/06 10:44:01;;;;;;;;;;;;;;;23.36;50.61;95895.47;10265977;28;1916;-50
2022/09/06 10:49:01;;;;;;;;;;;;;;;23.37;50.28;95894.38;10245776;28;1978;-50
2022/09/06 10:54:11;;;;;;;;;;;;;;;23.38;50.46;95888.03;10242167;28;1930;-49
2022/09/06 10:59:14;;;;;;;;;;;;;;;23.39;50.37;95884.28;10243594;28;1944;-51
2022/09/06 11:04:19;;;;;;;;;;;;;;;23.39;50.40;95868.41;10238553;28;1924;-47
2022/09/06 11:09:28;;;;;;;;;;;;;;;23.41;50.63;95867.06;10257922;28;1975;-50
2022/09/06 11:14:31;;;;;;;;;;;;;;;23.42;50.35;95866.00;10239699;28;1919;-49
2022/09/06 11:19:32;;;;;;;;;;;;;;;23.44;50.42;95868.34;10254402;28;1863;-48
2022/09/06 11:24:51;;;;;;;;;;;;;;;23.45;50.53;95862.00;10240614;28;1803;-47
2022/09/06 11:29:55;;;;;;;;;;;;;;;23.48;50.58;95861.41;10243799;28;2005;-49
2022/09/06 11:34:55;;;;;;;;;;;;;;;23.47;50.79;95854.56;10256651;28;1958;-49
2022/09/06 11:40:04;;;;;;;;;;;;;;;23.51;50.98;95857.41;10254857;28;1835;-50
2022/09/06 11:45:05;;;;;;;;;;;;;;;23.52;51.16;95848.38;10238351;28;1958;-50
2022/09/06 11:50:26;;;;;;;;;;;;;;;23.55;50.80;95845.16;10245586;28;1910;-47
2022/09/06 11:55:29;;;;;;;;;;;;;;;23.56;50.99;95850.16;10237310;28;1979;-51
2022/09/06 12:00:31;;;;;;;;;;;;;;;23.57;51.24;95841.16;10243115;28;1911;-50
2022/09/06 12:05:32;;;;;;;;;;;;;;;23.58;51.01;95842.72;10243499;28;1931;-47
2022/09/06 12:10:32;;;;;;;;;;;;;;;23.59;51.15;95833.72;10242895;28;2114;-47
2022/09/06 12:15:43;;;;;;;;;;;;;;;23.59;51.45;95823.13;10248274;28;1871;-50
2022/09/06 12:20:46;;;;;;;;;;;;;;;23.59;51.31;95823.13;10244162;28;2005;-48
2022/09/06 12:25:48;;;;;;;;;;;;;;;23.61;51.33;95825.47;10242100;28;1951;-49
2022/09/06 12:30:48;;;;;;;;;;;;;;;23.61;51.36;95818.31;10245597;28;1969;-47
2022/09/06 12:35:49;;;;;;;;;;;;;;;23.61;51.46;95823.63;10261081;28;1938;-47
2022/09/06 12:40:57;;;;;;;;;;;;;;;23.61;51.58;95813.03;10245490;28;1927;-49
2022/09/06 12:45:57;;;;;;;;;;;;;;;23.63;51.70;95810.09;10256629;28;1962;-51
2022/09/06 12:51:01;;;;;;;;;;;;;;;23.63;51.60;95804.78;10249727;28;1992;-50
2022/09/06 12:56:05;;;;;;;;;;;;;;;23.67;51.72;95808.44;10247252;28;1827;-49
2022/09/06 13:01:11;;;;;;;;;;;;;;;23.66;51.63;95796.28;10250597;28;1942;-48
2022/09/06 13:06:19;;;;;;;;;;;;;;;23.67;51.68;95795.19;10247081;28;1970;-49
2022/09/06 13:11:22;;;;;;;;;;;;;;;23.67;51.96;95789.91;10246718;28;1930;-47
2022/09/06 13:16:23;;;;;;;;;;;;;;;23.68;51.95;95789.59;10261383;28;1840;-47
2022/09/06 13:21:28;;;;;;;;;;;;;;;23.69;52.02;95785.91;10248012;28;1961;-50
2022/09/06 13:26:38;;;;;;;;;;;;;;;23.69;51.66;95777.16;10249473;28;1890;-50
2022/09/06 13:31:38;;;;;;;;;;;;;;;23.70;51.83;95784.81;10246718;28;1840;-48
2022/09/06 13:36:39;;;;;;;;;;;;;;;23.71;51.96;95786.38;10270222;28;2282;-46
2022/09/06 13:41:44;;;;;;;;;;;;;;;23.71;52.00;95773.16;10268963;28;1796;-51
2022/09/06 13:46:45;;;;;;;;;;;;;;;23.69;52.04;95764.72;10255353;28;1957;-51
2022/09/06 13:51:46;;;;;;;;;;;;;;;23.68;52.22;95760.50;10254863;28;1805;-47
2022/09/06 13:56:47;;;;;;;;;;;;;;;23.68;51.99;95757.84;10253182;28;1773;-47
2022/09/06 14:01:48;;;;;;;;;;;;;;;23.72;52.00;95752.78;10247764;28;1492;-49
2022/09/06 14:06:49;;;;;;;;;;;;;;;23.72;52.21;95760.72;10254467;28;1981;-50
2022/09/06 14:11:50;;;;;;;;;;;;;;;23.72;52.21;95760.72;10253015;28;2177;-48
2022/09/06 14:16:50;;;;;;;;;;;;;;;23.72;52.03;95744.84;10249330;28;1888;-51
2022/09/06 14:21:51;;;;;;;;;;;;;;;23.71;52.20;95738.75;10240062;28;1962;-48
2022/09/06 14:26:52;;;;;;;;;;;;;;;23.71;52.34;95738.75;10244606;28;1918;-48
2022/09/06 14:31:52;;;;;;;;;;;;;;;23.70;52.31;95731.88;10247641;28;1844;-48
2022/09/06 14:36:52;;;;;;;;;;;;;;;23.70;52.04;95731.88;10244244;28;1963;-48
2022/09/06 14:41:52;;;;;;;;;;;;;;;23.70;52.38;95737.16;10245759;28;1895;-46
2022/09/06 14:46:53;;;;;;;;;;;;;;;23.71;52.05;95732.66;10248106;28;1927;-48
2022/09/06 14:51:53;;;;;;;;;;;;;;;23.70;52.07;95723.16;10247198;28;1985;-50
2022/09/06 14:56:53;;;;;;;;;;;;;;;23.71;52.28;95732.66;10242978;28;1949;-45
2022/09/06 15:01:54;;;;;;;;;;;;;;;23.71;52.13;95730.03;10244639;28;1730;-49
2022/09/06 15:06:55;;;;;;;;;;;;;;;23.71;52.14;95724.72;10244434;28;2059;-47
2022/09/06 15:11:55;;;;;;;;;;;;;;;23.71;52.32;95722.06;10245864;28;1998;-48
2022/09/06 15:16:58;;;;;;;;;;;;;;;23.71;52.02;95714.94;10240484;28;1879;-50
2022/09/06 15:21:58;;;;;;;;;;;;;;;23.72;52.23;95728.97;10243936;28;1980;-46
2022/09/06 15:26:58;;;;;;;;;;;;;;;23.71;52.02;95722.88;10261441;28;1980;-46
2022/09/06 15:31:59;;;;;;;;;;;;;;;23.71;52.42;95717.56;10246840;28;1915;-50
2022/09/06 15:36:59;;;;;;;;;;;;;;;23.71;52.14;95709.63;10249378;28;1977;-50
2022/09/06 15:41:59;;;;;;;;;;;;;;;23.71;52.19;95704.34;10244769;28;1832;-46
2022/09/06 15:47:00;;;;;;;;;;;;;;;23.71;52.35;95698.25;10244670;28;1955;-46
2022/09/06 15:52:00;;;;;;;;;;;;;;;23.71;52.28;95687.66;10251712;28;1937;-49
2022/09/06 15:57:02;;;;;;;;;;;;;;;23.71;52.25;95688.47;10231680;28;1845;-45
2022/09/06 16:02:02;;;;;;;;;;;;;;;23.68;52.56;95681.09;10249401;28;1907;-48
2022/09/06 16:07:03;;;;;;;;;;;;;;;23.68;52.29;95689.03;10250324;28;1935;-49
2022/09/06 16:12:03;;;;;;;;;;;;;;;23.72;52.39;95690.03;10254257;28;2014;-47
2022/09/06 16:17:03;;;;;;;;;;;;;;;23.74;52.44;95679.16;10247989;28;1957;-45
2022/09/06 16:22:04;;;;;;;;;;;;;;;23.74;52.60;95687.84;10251839;28;1962;-47
2022/09/06 16:27:04;;;;;;;;;;;;;;;23.76;52.47;95692.88;10251961;28;1906;-46
2022/09/06 16:32:04;;;;;;;;;;;;;;;23.74;52.32;95689.75;10248493;28;2030;-44
2022/09/06 16:37:08;;;;;;;;;;;;;;;23.70;51.56;95691.41;10250878;28;1942;-47
2022/09/06 16:42:08;;;;;;;;;;;;;;;23.69;51.09;95692.47;10250257;28;1827;-47
2022/09/06 16:47:09;;;;;;;;;;;;;;;23.67;50.75;95689.34;10247096;28;2020;-48
2022/09/06 16:52:09;;;;;;;;;;;;;;;23.64;50.64;95689.94;10244805;28;2122;-46
2022/09/06 16:57:09;;;;;;;;;;;;;;;23.65;50.70;95694.94;10248123;28;1938;-47
2022/09/06 17:02:10;;;;;;;;;;;;;;;23.64;50.80;95693.34;10245106;28;1954;-46
2022/09/06 17:07:11;;;;;;;;;;;;;;;23.64;50.75;95685.41;10247612;28;2025;-46
2022/09/06 17:12:11;;;;;;;;;;;;;;;23.65;51.10;95689.66;10249375;28;1784;-44
2022/09/06 17:17:13;;;;;;;;;;;;;;;23.65;51.45;95681.69;10245688;28;2024;-45
2022/09/06 17:22:13;;;;;;;;;;;;;;;23.67;51.65;95671.59;10249502;28;2024;-45
2022/09/06 17:27:14;;;;;;;;;;;;;;;23.69;51.66;95676.59;10244484;28;1910;-45
2022/09/06 17:32:14;;;;;;;;;;;;;;;23.68;51.80;95665.22;10249927;28;2078;-47
2022/09/06 17:37:14;;;;;;;;;;;;;;;23.71;51.75;95666.50;10249279;28;2247;-44
2022/09/06 17:42:15;;;;;;;;;;;;;;;23.70;51.84;95662.31;10249587;28;2138;-43
2022/09/06 17:47:16;;;;;;;;;;;;;;;23.72;51.98;95673.38;10246040;28;2011;-42
2022/09/06 17:52:16;;;;;;;;;;;;;;;23.72;52.27;95694.56;10244172;28;2006;-45
2022/09/06 17:57:16;;;;;;;;;;;;;;;23.72;51.84;95697.19;10245403;28;2157;-47
2022/09/06 18:02:17;;;;;;;;;;;;;;;23.70;52.18;95716.00;10245510;28;2066;-48
2022/09/06 18:07:18;;;;;;;;;;;;;;;23.73;52.32;95720.72;10251123;28;1918;-44
2022/09/06 18:12:18;;;;;;;;;;;;;;;23.75;52.27;95731.78;10245911;28;2003;-45
2022/09/06 18:17:19;;;;;;;;;;;;;;;23.80;52.10;95747.56;10246015;28;2008;-48
2022/09/06 18:22:25;;;;;;;;;;;;;;;23.79;51.98;95743.34;10243745;28;1895;-48
2022/09/06 18:27:27;;;;;;;;;;;;;;;23.80;52.17;95752.84;10260915;28;1910;-48
2022/09/06 18:32:27;;;;;;;;;;;;;;;23.80;52.11;95742.25;10242396;28;2022;-47
2022/09/06 18:37:29;;;;;;;;;;;;;;;23.79;52.16;95751.31;10245246;28;2052;-47
2022/09/06 18:42:30;;;;;;;;;;;;;;;23.83;52.24;95751.50;10245034;28;2023;-46
2022/09/06 18:47:30;;;;;;;;;;;;;;;23.83;52.68;95732.97;10244073;28;2030;-49
2022/09/06 18:52:31;;;;;;;;;;;;;;;23.82;52.67;95724.22;10242273;28;2065;-46
2022/09/06 18:57:35;;;;;;;;;;;;;;;23.78;53.39;95727.78;10246033;28;2050;-45
2022/09/06 19:02:35;;;;;;;;;;;;;;;23.73;53.70;95723.34;10235647;28;2060;-46
2022/09/06 19:07:36;;;;;;;;;;;;;;;23.73;53.73;95736.59;10247322;28;2092;-47
2022/09/06 19:12:36;;;;;;;;;;;;;;;23.75;53.81;95736.28;10247073;28;2113;-49
2022/09/06 19:17:36;;;;;;;;;;;;;;;23.72;53.80;95728.97;10245927;28;2149;-47
2022/09/06 19:22:37;;;;;;;;;;;;;;;23.70;53.72;95726.59;10247372;28;2007;-45
2022/09/06 19:27:37;;;;;;;;;;;;;;;23.69;53.74;95729.53;10243972;28;2115;-49
2022/09/06 19:32:37;;;;;;;;;;;;;;;23.69;54.00;95716.28;10237170;28;2059;-46
2022/09/06 19:37:38;;;;;;;;;;;;;;;23.67;53.59;95719.25;10243957;28;2113;-45
2022/09/06 19:42:39;;;;;;;;;;;;;;;23.57;53.98;95711.50;10246937;28;1894;-47
2022/09/06 19:47:40;;;;;;;;;;;;;;;23.54;54.01;95706.78;10240461;28;2077;-46
2022/09/06 19:52:40;;;;;;;;;;;;;;;23.50;53.88;95705.78;10243102;28;2097;-46
2022/09/06 19:57:40;;;;;;;;;;;;;;;23.40;54.20;95713.91;10240635;28;2026;-49
2022/09/06 20:02:41;;;;;;;;;;;;;;;23.35;54.60;95706.06;10244529;28;2165;-49
2022/09/06 20:07:41;;;;;;;;;;;;;;;23.39;54.49;95696.47;10247471;28;1923;-45
2022/09/06 20:12:42;;;;;;;;;;;;;;;23.36;54.49;95692.56;10245621;28;1829;-45
2022/09/06 20:17:42;;;;;;;;;;;;;;;;;;10252208;28;2006;-50
2022/09/06 20:22:46;;;;;;;;;;;;;;;23.32;54.82;95682.84;10250623;28;2035;-45
2022/09/06 20:27:46;;;;;;;;;;;;;;;;;;10249454;28;1971;-45
2022/09/06 20:32:46;;;;;;;;;;;;;;;23.31;54.52;95671.47;10249262;28;2097;-48
2022/09/06 20:37:47;;;;;;;;;;;;;;;23.23;54.78;95674.00;10254385;28;2086;-47
2022/09/06 20:42:48;;;;;;;;;;;;;;;23.03;54.86;95674.34;10250322;28;2006;-46
2022/09/06 20:47:48;;;;;;;;;;;;;;;22.91;54.97;95674.03;10258668;28;2082;-45
2022/09/06 20:52:48;;;;;;;;;;;;;;;22.89;54.46;95666.41;10255209;28;2092;-48
2022/09/06 20:57:49;;;;;;;;;;;;;;;22.83;54.53;95669.41;10256148;28;2085;-45
2022/09/06 21:02:49;;;;;;;;;;;;;;;22.86;54.15;95663.53;10263896;28;2039;-47
2022/09/06 21:07:49;;;;;;;;;;;;;;;22.80;54.06;95648.84;10258184;28;2204;-46
2022/09/06 21:12:49;;;;;;;;;;;;;;;22.74;53.39;95642.84;10259994;28;2018;-45
2022/09/06 21:17:50;;;;;;;;;;;;;;;22.65;53.57;95642.72;10254574;28;2134;-45
2022/09/06 21:22:50;;;;;;;;;;;;;;;22.57;53.48;95640.72;10256775;28;2061;-47
2022/09/06 21:27:50;;;;;;;;;;;;;;;22.57;53.45;95642.56;10261660;28;1995;-46
2022/09/06 21:32:52;;;;;;;;;;;;;;;22.59;53.28;95643.88;10255926;28;2118;-46
2022/09/06 21:37:52;;;;;;;;;;;;;;;22.63;53.03;95644.09;10253781;28;2141;-46
2022/09/06 21:42:52;;;;;;;;;;;;;;;22.62;53.00;95648.59;10247192;28;1944;-50
2022/09/06 21:47:52;;;;;;;;;;;;;;;22.63;53.05;95654.66;10262954;28;2093;-46
2022/09/06 21:52:53;;;;;;;;;;;;;;;22.60;52.99;95655.25;10245043;28;2053;-46
2022/09/06 21:57:54;;;;;;;;;;;;;;;22.52;53.33;95663.78;10246071;28;2117;-45
2022/09/06 22:02:54;;;;;;;;;;;;;;;22.50;53.47;95661.41;10244329;28;2021;-44
2022/09/06 22:07:54;;;;;;;;;;;;;;;22.51;53.97;95663.00;10250418;28;1922;-49
2022/09/06 22:12:56;;;;;;;;;;;;;;;22.53;53.90;95660.06;10243159;28;2106;-48
2022/09/06 22:17:57;;;;;;;;;;;;;;;22.54;54.31;95651.09;10249467;28;2413;-47
2022/09/06 22:22:57;;;;;;;;;;;;;;;22.51;54.41;95651.66;10243202;28;2062;-47
2022/09/06 22:27:57;;;;;;;;;;;;;;;22.51;54.29;95644.50;10246622;28;2150;-47
2022/09/06 22:33:03;;;;;;;;;;;;;;;22.54;54.41;95646.59;10242501;28;2057;-46
2022/09/06 22:38:03;;;;;;;;;;;;;;;22.54;54.37;95643.16;10242906;28;2014;-45
2022/09/06 22:43:03;;;;;;;;;;;;;;;22.52;54.84;95643.44;10242403;28;2085;-46
2022/09/06 22:48:04;;;;;;;;;;;;;;;22.51;54.93;95641.06;10246055;28;2033;-47
2022/09/06 22:53:04;;;;;;;;;;;;;;;22.49;55.09;95649.28;10241668;28;2214;-46
2022/09/06 22:58:04;;;;;;;;;;;;;;;22.48;55.65;95639.78;10242418;28;2379;-49
2022/09/06 23:03:06;;;;;;;;;;;;;;;22.50;55.63;95639.53;10243127;28;1972;-47
2022/09/06 23:08:06;;;;;;;;;;;;;;;22.52;55.70;95632.09;10249134;28;2063;-49
2022/09/06 23:13:07;;;;;;;;;;;;;;;22.51;55.80;95628.66;10241686;28;2073;-46
2022/09/06 23:18:07;;;;;;;;;;;;;;;22.49;56.02;95628.16;10243834;28;2059;-49
2022/09/06 23:23:07;;;;;;;;;;;;;;;22.49;56.01;95625.53;10244484;28;2105;-46
2022/09/06 23:28:08;;;;;;;;;;;;;;;22.49;56.48;95616.81;10247214;28;2015;-50
2022/09/06 23:33:08;;;;;;;;;;;;;;;22.48;56.36;95608.09;10242672;28;2066;-46
2022/09/06 23:38:08;;;;;;;;;;;;;;;22.52;56.28;95613.59;10243366;28;2050;-48
2022/09/06 23:43:08;;;;;;;;;;;;;;;22.52;56.13;95617.00;10241615;28;2005;-45
2022/09/06 23:48:09;;;;;;;;;;;;;;;22.50;56.47;95603.31;10248066;28;2233;-44
2022/09/06 23:53:10;;;;;;;;;;;;;;;22.49;56.33;95606.25;10240335;28;2058;-45
2022/09/06 23:58:10;;;;;;;;;;;;;;;22.50;56.30;95598.03;10242835;28;2387;-46
